createdAt,value
2022-08-26T00:02:19.328Z,6.77
2022-08-26T00:04:49.408Z,6.43
2022-08-26T00:07:18.998Z,5.97
2022-08-26T00:09:54.509Z,6.73
2022-08-26T00:12:27.385Z,6.13
2022-08-26T00:15:08.098Z,6.53
2022-08-26T00:17:36.529Z,6.70
2022-08-26T00:20:10.797Z,6.87
2022-08-26T00:22:39.424Z,6.60
2022-08-26T00:25:09.365Z,6.90
2022-08-26T00:27:39.859Z,7.20
2022-08-26T00:30:14.683Z,6.77
2022-08-26T00:32:46.288Z,7.23
2022-08-26T00:35:15.927Z,6.83
2022-08-26T00:37:45.087Z,6.50
2022-08-26T00:40:19.388Z,7.07
2022-08-26T00:42:48.251Z,6.90
2022-08-26T00:45:18.604Z,6.60
2022-08-26T00:47:50.154Z,7.10
2022-08-26T00:50:23.094Z,7.27
2022-08-26T00:52:53.265Z,7.30
2022-08-26T00:55:25.491Z,7.17
2022-08-26T00:58:08.941Z,7.30
2022-08-26T01:00:38.720Z,6.87
2022-08-26T01:03:12.602Z,6.47
2022-08-26T01:05:42.188Z,7.40
2022-08-26T01:08:11.236Z,7.00
2022-08-26T01:10:40.543Z,7.37
2022-08-26T01:13:11.324Z,7.03
2022-08-26T01:15:45.566Z,7.30
2022-08-26T01:18:16.094Z,7.00
2022-08-26T01:20:57.541Z,7.37
2022-08-26T01:23:28.804Z,7.43
2022-08-26T01:26:01.080Z,6.93
2022-08-26T01:28:33.824Z,6.73
2022-08-26T01:31:05.362Z,7.37
2022-08-26T01:33:45.930Z,7.10
2022-08-26T01:36:15.252Z,6.93
2022-08-26T01:38:46.477Z,6.57
2022-08-26T01:41:19.909Z,6.90
2022-08-26T01:43:58.065Z,7.80
2022-08-26T01:46:28.134Z,7.33
2022-08-26T01:48:58.604Z,7.17
2022-08-26T01:51:30.130Z,7.40
2022-08-26T01:54:00.159Z,7.30
2022-08-26T01:56:36.694Z,7.23
2022-08-26T01:59:08.491Z,6.93
2022-08-26T02:01:39.055Z,8.07
2022-08-26T02:04:17.827Z,7.23
2022-08-26T02:06:46.743Z,7.40
2022-08-26T02:09:21.659Z,7.47
2022-08-26T02:11:51.268Z,7.37
2022-08-26T02:14:22.380Z,7.10
2022-08-26T02:16:56.333Z,7.40
2022-08-26T02:19:30.720Z,7.30
2022-08-26T02:22:02.509Z,7.57
2022-08-26T02:24:49.476Z,7.47
2022-08-26T02:27:19.424Z,7.10
2022-08-26T02:29:51.687Z,7.13
2022-08-26T02:32:20.088Z,6.73
2022-08-26T02:34:48.692Z,7.07
2022-08-26T02:37:17.736Z,7.67
2022-08-26T02:39:48.043Z,7.53
2022-08-26T02:42:16.462Z,7.17
2022-08-26T02:44:44.918Z,7.33
2022-08-26T02:47:15.607Z,7.13
2022-08-26T02:49:47.268Z,7.47
2022-08-26T02:52:20.873Z,7.53
2022-08-26T02:55:02.768Z,7.27
2022-08-26T02:57:32.156Z,7.30
2022-08-26T03:00:09.632Z,8.23
2022-08-26T03:05:27.904Z,7.33
2022-08-26T03:07:58.395Z,7.50
2022-08-26T03:10:32.237Z,7.87
2022-08-26T03:13:01.312Z,7.87
2022-08-26T03:15:34.068Z,7.83
2022-08-26T03:18:05.374Z,7.13
2022-08-26T03:20:45.421Z,8.13
2022-08-26T03:23:14.687Z,7.80
2022-08-26T03:25:51.916Z,8.20
2022-08-26T03:28:21.666Z,7.87
2022-08-26T03:30:51.792Z,8.80
2022-08-26T03:33:22.477Z,10.00
2022-08-26T03:35:53.234Z,7.90
2022-08-26T03:38:22.696Z,7.80
2022-08-26T03:41:09.211Z,7.63
2022-08-26T03:43:37.505Z,8.10
2022-08-26T03:46:06.466Z,8.07
2022-08-26T03:48:38.710Z,7.90
2022-08-26T03:51:18.043Z,7.23
2022-08-26T03:53:47.305Z,7.73
2022-08-26T03:56:19.771Z,8.37
2022-08-26T03:58:49.812Z,7.87
2022-08-26T04:01:21.786Z,7.37
2022-08-26T04:04:03.287Z,7.97
2022-08-26T04:06:35.300Z,7.63
2022-08-26T04:09:08.019Z,8.13
2022-08-26T04:11:40.273Z,8.03
2022-08-26T04:14:21.551Z,8.00
2022-08-26T04:16:55.501Z,8.10
2022-08-26T04:19:29.695Z,8.30
2022-08-26T04:21:58.126Z,8.87
2022-08-26T04:24:31.459Z,8.17
2022-08-26T04:30:23.009Z,8.27
2022-08-26T04:32:56.918Z,9.23
2022-08-26T04:39:04.250Z,8.43
2022-08-26T04:41:40.857Z,8.57
2022-08-26T04:44:21.833Z,8.90
2022-08-26T04:46:51.182Z,8.23
2022-08-26T04:49:21.137Z,8.43
2022-08-26T04:51:50.869Z,9.27
2022-08-26T04:54:21.616Z,9.50
2022-08-26T04:56:51.594Z,10.07
2022-08-26T04:59:24.575Z,8.37
2022-08-26T05:01:56.444Z,8.50
2022-08-26T05:04:26.611Z,9.33
2022-08-26T05:07:02.879Z,9.00
2022-08-26T05:09:31.768Z,9.80
2022-08-26T05:12:01.533Z,8.87
2022-08-26T05:14:35.979Z,8.77
2022-08-26T05:17:08.069Z,8.57
2022-08-26T05:19:38.639Z,9.00
2022-08-26T05:22:13.115Z,9.20
2022-08-26T05:24:42.259Z,9.30
2022-08-26T05:27:12.492Z,8.90
2022-08-26T05:29:47.903Z,9.70
2022-08-26T05:32:25.326Z,9.33
2022-08-26T05:34:57.603Z,9.87
2022-08-26T05:37:28.185Z,8.93
2022-08-26T05:43:27.144Z,9.50
2022-08-26T05:49:15.265Z,9.90
2022-08-26T05:51:50.254Z,9.47
2022-08-26T05:54:29.975Z,9.67
2022-08-26T05:57:28.103Z,9.73
2022-08-26T05:59:57.980Z,10.07
2022-08-26T06:02:28.710Z,10.00
2022-08-26T06:04:57.581Z,9.77
2022-08-26T06:07:51.778Z,11.17
2022-08-26T06:10:32.170Z,10.20
2022-08-26T06:13:11.534Z,10.70
2022-08-26T06:15:45.327Z,10.93
2022-08-26T06:18:24.106Z,10.33
2022-08-26T06:20:58.368Z,10.13
2022-08-26T06:23:47.151Z,11.77
2022-08-26T06:26:17.209Z,11.47
2022-08-26T06:28:56.475Z,10.20
2022-08-26T06:31:25.941Z,10.50
2022-08-26T06:34:08.538Z,11.77
2022-08-26T06:39:17.734Z,11.70
2022-08-26T06:45:01.353Z,11.63
2022-08-26T06:47:45.260Z,10.87
2022-08-26T06:50:22.249Z,11.23
2022-08-26T06:52:57.824Z,10.57
2022-08-26T06:55:28.482Z,11.73
2022-08-26T06:57:58.092Z,11.23
2022-08-26T07:00:42.269Z,10.97
2022-08-26T07:03:39.759Z,11.07
2022-08-26T07:06:15.163Z,11.23
2022-08-26T07:08:45.643Z,11.60
2022-08-26T07:11:19.122Z,11.77
2022-08-26T07:13:52.370Z,11.27
2022-08-26T07:16:22.384Z,11.53
2022-08-26T07:21:53.265Z,10.93
2022-08-26T07:24:23.908Z,10.43
2022-08-26T07:27:00.576Z,9.90
2022-08-26T07:29:29.319Z,10.83
2022-08-26T07:31:57.814Z,10.60
2022-08-26T07:38:27.289Z,10.23
2022-08-26T07:41:20.028Z,10.60
2022-08-26T07:43:50.124Z,8.90
2022-08-26T07:46:20.799Z,9.30
2022-08-26T07:48:56.547Z,9.70
2022-08-26T07:51:25.051Z,9.33
2022-08-26T07:53:59.230Z,9.80
2022-08-26T08:03:24.816Z,9.20
2022-08-26T08:06:57.467Z,8.40
2022-08-26T08:10:06.694Z,8.77
2022-08-26T08:12:38.916Z,8.73
2022-08-26T08:15:08.962Z,9.30
2022-08-26T08:17:38.601Z,27.30
2022-08-26T08:20:14.178Z,9.40
2022-08-26T08:22:43.058Z,8.87
2022-08-26T08:25:11.960Z,8.03
2022-08-26T08:27:41.590Z,8.77
2022-08-26T08:30:13.866Z,6.97
2022-08-26T08:39:38.263Z,7.30
2022-08-26T08:42:27.777Z,6.60
2022-08-26T08:45:00.558Z,6.80
2022-08-26T08:47:33.901Z,7.17
2022-08-26T08:50:25.054Z,7.23
2022-08-26T08:53:04.196Z,7.90
2022-08-26T08:55:57.500Z,7.47
2022-08-26T08:58:36.703Z,7.47
2022-08-26T09:01:09.797Z,6.93
2022-08-26T09:03:52.179Z,7.43
2022-08-26T09:06:20.948Z,6.73
2022-08-26T09:08:51.677Z,7.03
2022-08-26T09:11:21.930Z,6.50
2022-08-26T09:13:55.579Z,6.60
2022-08-26T09:16:31.389Z,6.90
2022-08-26T09:22:50.000Z,7.17
2022-08-26T09:28:29.362Z,6.97
2022-08-26T09:31:14.718Z,6.60
2022-08-26T09:33:44.402Z,7.07
2022-08-26T09:36:41.138Z,7.57
2022-08-26T09:39:34.239Z,6.90
2022-08-26T09:42:11.434Z,6.47
2022-08-26T09:44:58.762Z,6.67
2022-08-26T09:47:30.300Z,6.83
2022-08-26T09:50:37.357Z,7.00
2022-08-26T09:53:20.951Z,6.63
2022-08-26T09:56:18.472Z,6.30
2022-08-26T09:58:55.051Z,7.53
2022-08-26T10:01:33.859Z,7.00
2022-08-26T10:04:11.009Z,6.17
2022-08-26T10:06:47.913Z,7.23
2022-08-26T10:15:18.392Z,6.47
2022-08-26T10:18:01.424Z,6.50
2022-08-26T10:20:37.708Z,6.17
2022-08-26T10:23:20.200Z,6.53
2022-08-26T10:26:06.983Z,6.60
2022-08-26T10:28:49.002Z,6.83
2022-08-26T10:31:38.185Z,6.63
2022-08-26T10:34:13.920Z,5.70
2022-08-26T10:37:14.092Z,6.40
2022-08-26T10:39:46.629Z,6.60
2022-08-26T10:42:23.352Z,7.00
2022-08-26T10:44:58.738Z,6.07
2022-08-26T10:47:39.691Z,5.53
2022-08-26T10:50:26.867Z,6.20
2022-08-26T10:56:15.801Z,6.03
2022-08-26T10:59:02.329Z,6.90
2022-08-26T11:01:46.974Z,6.23
2022-08-26T11:04:47.517Z,6.30
2022-08-26T11:07:44.187Z,18.80
2022-08-26T11:18:08.226Z,6.63
2022-08-26T11:38:15.963Z,5.37
2022-08-26T11:40:58.325Z,5.70
2022-08-26T11:44:20.611Z,6.27
2022-08-26T11:46:59.877Z,5.70
2022-08-26T11:49:49.286Z,6.10
2022-08-26T11:52:22.069Z,6.10
2022-08-26T11:55:17.856Z,5.80
2022-08-26T11:58:43.611Z,6.10
2022-08-26T12:01:14.777Z,5.80
2022-08-26T12:03:50.800Z,5.47
2022-08-26T12:09:27.533Z,5.60
2022-08-26T12:15:29.663Z,5.30
2022-08-26T12:18:46.818Z,5.73
2022-08-26T12:21:26.405Z,5.95
2022-08-26T12:23:57.783Z,5.53
2022-08-26T12:26:31.492Z,5.70
2022-08-26T12:29:31.484Z,5.83
2022-08-26T12:32:25.415Z,6.00
2022-08-26T12:34:56.508Z,5.17
2022-08-26T12:37:25.870Z,5.47
2022-08-26T12:40:25.836Z,5.80
2022-08-26T12:43:28.914Z,5.47
2022-08-26T12:46:10.072Z,5.27
2022-08-26T12:48:46.598Z,5.63
2022-08-26T12:51:30.855Z,5.63
2022-08-26T12:54:52.413Z,5.47
2022-08-26T12:57:55.283Z,5.20
2022-08-26T13:00:34.805Z,5.20
2022-08-26T13:03:32.713Z,5.70
2022-08-26T13:06:15.783Z,5.57
2022-08-26T13:08:47.650Z,5.67
2022-08-26T13:11:22.594Z,5.70
2022-08-26T13:14:02.044Z,5.40
2022-08-26T13:16:53.355Z,5.77
2022-08-26T13:19:29.640Z,5.50
2022-08-26T13:22:00.781Z,5.53
2022-08-26T13:24:37.162Z,5.30
2022-08-26T13:27:14.367Z,5.40
2022-08-26T13:29:44.000Z,5.30
2022-08-26T13:32:14.303Z,6.80
2022-08-26T13:34:52.660Z,6.10
2022-08-26T13:37:29.303Z,5.60
2022-08-26T13:40:06.475Z,5.40
2022-08-26T13:42:37.966Z,5.70
2022-08-26T13:45:26.164Z,5.27
2022-08-26T13:47:55.790Z,5.43
2022-08-26T13:50:27.815Z,5.43
2022-08-26T13:52:57.192Z,6.30
2022-08-26T13:55:28.930Z,4.60
2022-08-26T13:58:00.928Z,4.40
2022-08-26T14:00:33.839Z,5.23
2022-08-26T14:03:02.889Z,4.17
2022-08-26T14:08:25.088Z,4.57
2022-08-26T14:10:55.129Z,4.47
2022-08-26T14:16:59.449Z,4.37
2022-08-26T14:19:38.452Z,4.53
2022-08-26T14:22:09.852Z,4.93
2022-08-26T14:24:42.720Z,4.57
2022-08-26T14:27:11.986Z,4.60
2022-08-26T14:29:59.838Z,4.67
2022-08-26T14:32:31.957Z,4.97
2022-08-26T14:35:26.164Z,4.87
2022-08-26T14:47:44.998Z,4.73
2022-08-26T14:50:17.432Z,4.50
2022-08-26T14:53:06.418Z,5.70
2022-08-26T14:55:41.843Z,4.90
2022-08-26T14:58:37.608Z,4.17
2022-08-26T15:01:09.804Z,4.67
2022-08-26T15:03:39.258Z,4.10
2022-08-26T15:06:22.209Z,5.30
2022-08-26T15:08:57.769Z,4.60
2022-08-26T15:11:28.058Z,4.63
2022-08-26T15:14:04.495Z,4.77
2022-08-26T15:16:36.615Z,4.27
2022-08-26T15:19:11.393Z,3.97
2022-08-26T15:21:41.745Z,4.00
2022-08-26T15:24:13.832Z,3.80
2022-08-26T15:26:45.905Z,3.93
2022-08-26T15:29:18.262Z,4.00
2022-08-26T15:31:57.217Z,4.43
2022-08-26T15:34:33.813Z,4.20
2022-08-26T15:37:09.766Z,4.33
2022-08-26T15:39:41.461Z,4.43
2022-08-26T15:42:15.873Z,3.83
2022-08-26T15:45:26.017Z,4.53
2022-08-26T15:48:01.484Z,4.13
2022-08-26T15:50:32.593Z,4.20
2022-08-26T15:53:11.983Z,4.30
2022-08-26T15:55:54.183Z,3.90
2022-08-26T15:58:31.047Z,4.27
2022-08-26T16:01:06.841Z,4.10
2022-08-26T16:03:42.847Z,3.70
2022-08-26T16:06:32.799Z,3.93
2022-08-26T16:09:38.554Z,3.90
2022-08-26T16:12:09.221Z,4.30
2022-08-26T16:15:00.850Z,4.27
2022-08-26T16:17:32.090Z,4.43
2022-08-26T16:20:23.487Z,5.10
2022-08-26T16:26:16.125Z,5.53
2022-08-26T16:29:20.129Z,6.53
2022-08-26T16:31:55.577Z,5.87
2022-08-26T16:34:56.790Z,6.00
2022-08-26T16:37:41.728Z,6.73
2022-08-26T16:40:36.754Z,9.07
2022-08-26T16:43:06.794Z,8.40
2022-08-26T16:46:05.292Z,8.90
2022-08-26T16:49:13.552Z,6.97
2022-08-26T16:51:45.117Z,9.00
2022-08-26T16:54:14.268Z,7.30
2022-08-26T16:57:21.434Z,7.10
2022-08-26T16:59:55.433Z,6.50
2022-08-26T17:02:24.588Z,6.43
2022-08-26T17:04:55.038Z,6.60
2022-08-26T17:07:28.158Z,6.07
2022-08-26T17:13:55.580Z,6.67
2022-08-26T17:16:35.676Z,7.10
2022-08-26T17:19:40.869Z,7.50
2022-08-26T17:25:49.635Z,7.93
2022-08-26T17:34:38.817Z,10.07
2022-08-26T17:37:08.464Z,8.73
2022-08-26T17:39:44.755Z,8.40
2022-08-26T17:42:16.892Z,8.97
2022-08-26T17:44:49.625Z,9.93
2022-08-26T17:50:22.064Z,9.27
2022-08-26T17:52:55.211Z,9.23
2022-08-26T17:55:25.138Z,9.87
2022-08-26T17:57:55.432Z,8.23
2022-08-26T18:00:34.756Z,9.50
2022-08-26T18:03:15.175Z,23.07
2022-08-26T18:06:29.708Z,10.90
2022-08-26T18:09:08.807Z,9.43
2022-08-26T18:11:38.503Z,28.30
2022-08-26T18:14:10.168Z,13.73
2022-08-26T18:16:41.920Z,9.77
2022-08-26T18:19:21.710Z,9.50
2022-08-26T18:25:07.311Z,10.40
2022-08-26T18:27:38.532Z,9.80
2022-08-26T18:30:37.217Z,9.80
2022-08-26T18:33:18.052Z,10.03
2022-08-26T18:35:47.098Z,9.97
2022-08-26T18:38:28.433Z,11.30
2022-08-26T18:41:02.767Z,15.03
2022-08-26T18:43:34.021Z,9.93
2022-08-26T18:46:08.211Z,9.60
2022-08-26T18:48:51.099Z,9.37
2022-08-26T18:51:27.842Z,8.67
2022-08-26T18:54:01.675Z,11.37
2022-08-26T18:59:55.742Z,7.70
2022-08-26T19:02:34.408Z,7.33
2022-08-26T19:05:04.637Z,8.43
2022-08-26T19:11:31.353Z,10.63
2022-08-26T19:14:03.796Z,9.03
2022-08-26T19:16:35.412Z,8.80
2022-08-26T19:19:16.712Z,8.73
2022-08-26T19:21:46.156Z,9.50
2022-08-26T19:24:18.514Z,10.17
2022-08-26T19:26:55.199Z,10.00
2022-08-26T19:29:30.606Z,14.23
2022-08-26T19:32:05.624Z,10.00
2022-08-26T19:34:36.616Z,9.60
2022-08-26T19:37:05.606Z,9.50
2022-08-26T19:39:36.205Z,9.90
2022-08-26T19:42:04.671Z,9.47
2022-08-26T19:44:51.216Z,9.27
2022-08-26T19:47:19.776Z,10.07
2022-08-26T19:49:54.702Z,10.13
2022-08-26T19:52:23.558Z,10.13
2022-08-26T19:54:58.746Z,9.67
2022-08-26T19:57:27.917Z,10.33
2022-08-26T19:59:56.875Z,9.67
2022-08-26T20:02:27.010Z,10.33
2022-08-26T20:04:58.339Z,10.27
2022-08-26T20:07:27.045Z,9.80
2022-08-26T20:09:57.058Z,10.00
2022-08-26T20:12:28.469Z,10.30
2022-08-26T20:15:00.613Z,9.83
2022-08-26T20:17:29.635Z,9.60
2022-08-26T20:22:40.678Z,8.80
2022-08-26T20:25:15.441Z,9.47
2022-08-26T20:27:46.306Z,20.63
2022-08-26T20:30:17.379Z,21.07
2022-08-26T20:32:47.128Z,10.20
2022-08-26T20:35:25.594Z,10.13
2022-08-26T20:38:13.662Z,10.00
2022-08-26T20:40:42.284Z,9.90
2022-08-26T20:43:11.147Z,10.17
2022-08-26T20:45:57.492Z,9.70
2022-08-26T20:48:47.833Z,10.63
2022-08-26T20:51:26.427Z,11.17
2022-08-26T20:53:54.986Z,10.27
2022-08-26T20:56:24.883Z,10.00
2022-08-26T20:58:56.282Z,9.93
2022-08-26T21:01:45.972Z,9.63
2022-08-26T21:04:28.006Z,9.77
2022-08-26T21:07:15.319Z,10.27
2022-08-26T21:10:13.845Z,10.53
2022-08-26T21:16:33.664Z,10.57
2022-08-26T21:19:02.274Z,10.90
2022-08-26T21:21:36.269Z,54.60
2022-08-26T21:24:06.912Z,41.77
2022-08-26T21:26:39.097Z,11.07
2022-08-26T21:29:09.896Z,11.20
2022-08-26T21:35:11.871Z,10.83
2022-08-26T21:37:58.037Z,10.73
2022-08-26T21:40:28.609Z,11.07
2022-08-26T21:42:59.956Z,11.47
2022-08-26T21:46:00.849Z,11.50
2022-08-26T21:48:49.952Z,10.53
2022-08-26T21:51:20.756Z,11.47
2022-08-26T21:53:53.269Z,10.57
2022-08-26T21:56:32.549Z,11.43
2022-08-26T21:59:02.074Z,18.53
2022-08-26T22:01:34.733Z,19.53
2022-08-26T22:04:05.177Z,11.97
2022-08-26T22:07:05.024Z,11.60
2022-08-26T22:09:36.953Z,11.60
2022-08-26T22:12:10.794Z,11.90
2022-08-26T22:14:42.772Z,12.17
2022-08-26T22:17:13.538Z,12.80
2022-08-26T22:19:46.266Z,12.57
2022-08-26T22:22:18.164Z,12.90
2022-08-26T22:24:48.267Z,12.13
2022-08-26T22:27:19.252Z,12.90
2022-08-26T22:29:48.124Z,12.90
2022-08-26T22:32:20.905Z,13.77
2022-08-26T22:34:49.841Z,14.37
2022-08-26T22:37:18.233Z,13.83
2022-08-26T22:39:47.879Z,14.40
2022-08-26T22:42:17.964Z,14.03
2022-08-26T22:44:51.362Z,14.73
2022-08-26T22:47:19.842Z,15.30
2022-08-26T22:49:48.840Z,15.83
2022-08-26T22:52:19.077Z,15.00
2022-08-26T22:54:49.342Z,13.97
2022-08-26T22:57:20.380Z,14.33
2022-08-26T23:00:04.458Z,14.30
2022-08-26T23:02:34.546Z,13.60
2022-08-26T23:05:02.861Z,14.03
2022-08-26T23:11:07.176Z,13.10
2022-08-26T23:13:41.586Z,12.67
2022-08-26T23:16:20.184Z,13.60
2022-08-26T23:18:48.661Z,12.90
2022-08-26T23:21:27.814Z,13.30
2022-08-26T23:23:56.542Z,12.87
2022-08-26T23:32:51.520Z,11.23
2022-08-26T23:35:21.654Z,11.20
2022-08-26T23:37:55.669Z,11.30
2022-08-26T23:40:32.366Z,11.27
2022-08-26T23:43:19.453Z,10.77
2022-08-26T23:45:47.887Z,11.03
2022-08-26T23:48:17.705Z,11.33
2022-08-26T23:51:05.521Z,10.87
2022-08-26T23:53:34.139Z,10.70
2022-08-26T23:56:02.478Z,10.60
2022-08-26T23:58:40.327Z,10.33
